createdAt,value
2019-05-12T00:00:51.665Z,14.52
2019-05-12T00:03:19.451Z,14.26
2019-05-12T00:21:58.628Z,13.56
2019-05-12T00:24:27.947Z,14.05
2019-05-12T00:26:58.041Z,14.66
2019-05-12T00:29:25.954Z,14.46
2019-05-12T00:31:53.770Z,14.34
2019-05-12T00:34:21.777Z,14.95
2019-05-12T00:36:49.638Z,14.59
2019-05-12T00:39:19.154Z,14.04
2019-05-12T00:41:48.218Z,13.91
2019-05-12T00:44:18.206Z,13.75
2019-05-12T00:46:45.809Z,13.62
2019-05-12T00:49:13.659Z,13.30
2019-05-12T00:51:42.607Z,13.55
2019-05-12T00:54:10.435Z,14.20
2019-05-12T00:56:39.183Z,14.12
2019-05-12T00:59:08.320Z,14.89
2019-05-12T01:01:38.077Z,15.44
2019-05-12T01:04:08.512Z,16.01
2019-05-12T01:06:35.449Z,15.59
2019-05-12T01:09:08.531Z,16.05
2019-05-12T01:11:37.827Z,15.96
2019-05-12T01:14:05.373Z,15.33
2019-05-12T01:16:33.262Z,15.77
2019-05-12T01:19:02.137Z,15.95
2019-05-12T01:21:30.019Z,15.39
2019-05-12T01:24:03.305Z,15.53
2019-05-12T01:26:28.425Z,15.99
2019-05-12T01:28:58.075Z,15.65
2019-05-12T01:31:28.617Z,15.31
2019-05-12T01:33:58.445Z,15.72
2019-05-12T01:36:25.953Z,15.84
2019-05-12T01:38:53.839Z,16.15
2019-05-12T01:41:21.734Z,16.26
2019-05-12T01:43:53.116Z,16.31
2019-05-12T01:46:21.045Z,16.25
2019-05-12T01:48:48.896Z,16.01
2019-05-12T01:51:17.811Z,15.89
2019-05-12T01:53:48.164Z,16.27
2019-05-12T01:56:18.097Z,16.20
2019-05-12T01:58:48.399Z,16.30
2019-05-12T02:01:18.150Z,16.30
2019-05-12T02:03:47.951Z,16.10
2019-05-12T02:06:18.482Z,16.11
2019-05-12T02:08:53.416Z,15.79
2019-05-12T02:11:33.567Z,15.98
2019-05-12T02:14:04.256Z,16.11
2019-05-12T02:16:32.122Z,16.04
2019-05-12T02:18:59.934Z,15.84
2019-05-12T02:21:28.027Z,15.76
2019-05-12T02:23:58.315Z,16.07
2019-05-12T02:26:26.423Z,16.09
2019-05-12T02:28:54.248Z,15.83
2019-05-12T02:31:22.206Z,15.64
2019-05-12T02:33:50.071Z,15.94
2019-05-12T02:36:19.327Z,16.08
2019-05-12T02:38:47.135Z,15.86
2019-05-12T02:41:15.695Z,15.48
2019-05-12T02:43:45.920Z,15.30
2019-05-12T02:46:15.750Z,15.38
2019-05-12T02:48:45.005Z,15.45
2019-05-12T02:51:15.627Z,15.64
2019-05-12T02:53:42.597Z,15.77
2019-05-12T02:56:10.581Z,15.76
2019-05-12T02:58:38.504Z,16.09
2019-05-12T03:01:06.354Z,15.96
2019-05-12T03:03:35.346Z,15.68
2019-05-12T03:06:05.478Z,15.82
2019-05-12T03:08:34.919Z,15.35
2019-05-12T03:11:05.980Z,15.31
2019-05-12T03:13:34.604Z,15.38
2019-05-12T03:16:04.968Z,14.87
2019-05-12T03:18:34.549Z,15.72
2019-05-12T03:21:05.304Z,15.65
2019-05-12T03:23:30.917Z,15.64
2019-05-12T03:25:58.848Z,15.45
2019-05-12T03:28:26.635Z,15.57
2019-05-12T03:30:57.763Z,15.54
2019-05-12T03:33:33.132Z,15.57
2019-05-12T03:36:00.305Z,15.87
2019-05-12T03:38:27.245Z,15.61
2019-05-12T03:40:55.104Z,15.49
2019-05-12T03:43:24.322Z,15.86
2019-05-12T03:45:55.636Z,15.84
2019-05-12T03:48:25.054Z,16.12
2019-05-12T03:50:53.977Z,15.87
2019-05-12T03:53:24.449Z,16.16
2019-05-12T03:55:50.478Z,16.20
2019-05-12T03:58:18.524Z,15.93
2019-05-12T04:00:46.342Z,16.05
2019-05-12T04:03:15.284Z,15.90
2019-05-12T04:05:45.263Z,15.86
2019-05-12T04:08:15.663Z,15.86
2019-05-12T04:10:45.195Z,15.36
2019-05-12T04:13:14.762Z,15.37
2019-05-12T04:15:45.093Z,15.02
2019-05-12T04:18:11.215Z,15.10
2019-05-12T04:20:39.106Z,15.41
2019-05-12T04:23:07.307Z,15.80
2019-05-12T04:25:47.640Z,15.27
2019-05-12T04:28:05.078Z,15.09
2019-05-12T04:30:35.695Z,14.96
2019-05-12T04:33:04.760Z,14.57
2019-05-12T04:35:34.900Z,15.05
2019-05-12T04:38:04.338Z,15.04
2019-05-12T04:40:35.327Z,15.06
2019-05-12T04:43:05.122Z,15.29
2019-05-12T04:45:34.566Z,15.09
2019-05-12T04:48:04.751Z,14.82
2019-05-12T04:50:31.061Z,14.78
2019-05-12T04:52:59.081Z,14.98
2019-05-12T04:55:26.942Z,14.76
2019-05-12T04:57:54.875Z,14.38
2019-05-12T05:00:25.454Z,14.74
2019-05-12T05:02:54.570Z,14.31
2019-05-12T05:05:24.819Z,14.53
2019-05-12T05:07:54.150Z,14.79
2019-05-12T05:10:21.665Z,15.52
2019-05-12T05:12:49.477Z,15.41
2019-05-12T05:15:17.553Z,16.02
2019-05-12T05:17:45.325Z,15.30
2019-05-12T05:20:13.689Z,14.80
2019-05-12T05:22:43.779Z,15.28
2019-05-12T05:25:11.233Z,16.25
2019-05-12T05:27:39.062Z,16.70
2019-05-12T05:30:07.647Z,16.25
2019-05-12T05:32:35.580Z,15.31
2019-05-12T05:35:07.193Z,16.24
2019-05-12T05:37:37.009Z,16.44
2019-05-12T05:40:03.907Z,16.61
2019-05-12T05:42:33.379Z,16.54
2019-05-12T05:45:04.666Z,15.87
2019-05-12T05:47:33.452Z,16.30
2019-05-12T05:50:01.119Z,15.51
2019-05-12T05:52:33.455Z,15.74
2019-05-12T05:54:58.577Z,16.05
2019-05-12T05:57:29.722Z,16.18
2019-05-12T05:59:55.947Z,16.30
2019-05-12T06:02:32.040Z,16.09
2019-05-12T06:04:56.430Z,15.87
2019-05-12T06:07:35.111Z,16.37
2019-05-12T06:09:54.138Z,16.36
2019-05-12T06:12:23.904Z,15.90
2019-05-12T06:14:55.336Z,15.52
2019-05-12T06:17:23.501Z,16.03
2019-05-12T06:19:53.852Z,15.55
2019-05-12T06:22:23.509Z,16.06
2019-05-12T06:24:56.946Z,16.49
2019-05-12T06:27:21.242Z,16.52
2019-05-12T06:29:52.454Z,16.59
2019-05-12T06:32:20.075Z,16.23
2019-05-12T06:34:50.886Z,16.29
2019-05-12T06:37:17.586Z,16.11
2019-05-12T06:39:46.112Z,16.34
2019-05-12T06:42:16.802Z,16.40
2019-05-12T06:44:43.820Z,16.38
2019-05-12T06:47:11.741Z,16.60
2019-05-12T06:49:39.614Z,16.60
2019-05-12T06:52:07.509Z,16.71
2019-05-12T06:54:35.346Z,16.34
2019-05-12T06:57:21.399Z,16.72
2019-05-12T06:59:34.767Z,16.60
2019-05-12T07:02:03.401Z,16.22
2019-05-12T07:04:33.716Z,16.85
2019-05-12T07:07:01.023Z,16.77
2019-05-12T07:09:32.596Z,16.73
2019-05-12T07:12:03.751Z,16.61
2019-05-12T07:14:35.157Z,17.04
2019-05-12T07:17:09.412Z,16.97
2019-05-12T07:19:37.327Z,16.71
2019-05-12T07:22:18.881Z,16.64
2019-05-12T07:24:34.818Z,16.66
2019-05-12T07:27:08.967Z,16.79
2019-05-12T07:29:34.216Z,16.99
2019-05-12T07:32:07.207Z,16.74
2019-05-12T07:34:33.402Z,16.93
2019-05-12T07:37:01.303Z,16.92
2019-05-12T07:39:29.789Z,16.71
2019-05-12T07:41:58.758Z,16.07
2019-05-12T07:44:32.159Z,16.76
2019-05-12T07:46:57.635Z,16.28
2019-05-12T07:49:34.307Z,16.52
2019-05-12T07:51:56.258Z,16.89
2019-05-12T07:54:24.258Z,16.81
2019-05-12T07:56:53.982Z,16.82
2019-05-12T07:59:26.693Z,16.98
2019-05-12T08:01:54.803Z,16.84
2019-05-12T08:04:23.812Z,16.57
2019-05-12T08:06:53.758Z,16.79
2019-05-12T08:09:24.273Z,16.73
2019-05-12T08:11:54.035Z,16.80
2019-05-12T08:14:29.010Z,17.08
2019-05-12T08:16:54.337Z,17.29
2019-05-12T08:19:28.083Z,17.58
2019-05-12T08:21:53.605Z,17.73
2019-05-12T08:24:23.509Z,17.23
2019-05-12T08:26:58.855Z,17.26
2019-05-12T08:29:24.533Z,17.08
2019-05-12T08:31:54.650Z,16.27
2019-05-12T08:34:23.773Z,16.06
2019-05-12T08:36:56.782Z,16.36
2019-05-12T08:39:25.417Z,16.26
2019-05-12T08:41:53.140Z,16.14
2019-05-12T08:44:24.563Z,16.24
2019-05-12T08:46:56.286Z,16.20
2019-05-12T08:49:23.464Z,16.58
2019-05-12T08:51:57.781Z,16.35
2019-05-12T08:54:20.658Z,16.24
2019-05-12T08:56:51.035Z,16.23
2019-05-12T08:59:24.258Z,16.10
2019-05-12T09:01:47.750Z,16.27
2019-05-12T09:04:18.280Z,16.39
2019-05-12T09:06:45.303Z,16.37
2019-05-12T09:09:13.957Z,16.36
2019-05-12T09:11:43.877Z,16.41
2019-05-12T09:14:11.402Z,16.22
2019-05-12T09:16:39.282Z,16.40
2019-05-12T09:19:10.191Z,16.25
2019-05-12T09:21:37.232Z,16.34
2019-05-12T09:24:05.509Z,16.39
2019-05-12T09:26:34.416Z,16.14
2019-05-12T09:29:03.484Z,16.41
2019-05-12T09:31:33.401Z,16.46
2019-05-12T09:34:05.478Z,16.56
2019-05-12T09:36:33.600Z,16.41
2019-05-12T09:39:01.777Z,16.69
2019-05-12T09:41:35.928Z,16.48
2019-05-12T09:44:01.681Z,16.50
2019-05-12T09:46:34.348Z,16.67
2019-05-12T09:48:59.205Z,16.30
2019-05-12T09:51:27.076Z,16.23
2019-05-12T09:53:55.920Z,16.39
2019-05-12T09:56:24.171Z,16.42
2019-05-12T10:05:24.677Z,16.51
2019-05-12T10:07:53.621Z,16.57
2019-05-12T10:10:21.477Z,16.64
2019-05-12T10:12:50.701Z,16.48
2019-05-12T10:15:26.104Z,16.35
2019-05-12T10:17:48.575Z,16.05
2019-05-12T10:20:16.523Z,16.06
2019-05-12T10:22:44.369Z,16.09
2019-05-12T10:25:14.196Z,16.18
2019-05-12T10:27:44.063Z,16.28
2019-05-12T10:30:12.731Z,16.41
2019-05-12T10:32:41.013Z,16.58
2019-05-12T10:35:28.166Z,16.63
2019-05-12T10:38:00.170Z,16.63
2019-05-12T10:40:25.715Z,16.93
2019-05-12T10:42:54.693Z,17.06
2019-05-12T10:45:25.152Z,16.81
2019-05-12T10:47:53.680Z,16.40
2019-05-12T10:50:23.402Z,16.52
2019-05-12T10:52:53.516Z,16.69
2019-05-12T10:55:20.914Z,16.69
2019-05-12T10:57:53.029Z,16.64
2019-05-12T11:00:24.589Z,16.66
2019-05-12T11:02:49.409Z,16.78
2019-05-12T11:05:28.583Z,17.03
2019-05-12T11:08:00.253Z,17.12
2019-05-12T11:17:18.384Z,17.01
2019-05-12T11:19:50.044Z,17.01
2019-05-12T11:22:15.619Z,17.26
2019-05-12T11:24:44.390Z,17.18
2019-05-12T11:27:13.498Z,17.22
2019-05-12T11:29:46.046Z,17.17
2019-05-12T11:32:14.017Z,17.32
2019-05-12T11:34:43.819Z,17.35
2019-05-12T11:37:13.741Z,17.21
2019-05-12T11:39:46.860Z,17.22
2019-05-12T11:42:10.348Z,17.40
2019-05-12T11:44:38.135Z,17.08
2019-05-12T11:47:05.873Z,17.23
2019-05-12T11:49:33.767Z,17.19
2019-05-12T11:52:07.636Z,17.23
2019-05-12T11:54:30.922Z,17.12
2019-05-12T11:56:58.851Z,17.13
2019-05-12T11:59:26.748Z,17.29
2019-05-12T12:01:56.118Z,17.43
2019-05-12T12:04:26.737Z,17.55
2019-05-12T12:06:56.511Z,17.27
2019-05-12T12:09:31.943Z,17.26
2019-05-12T12:12:03.140Z,17.45
2019-05-12T12:14:31.778Z,17.56
2019-05-12T12:18:03.830Z,17.55
2019-05-12T12:19:46.832Z,17.66
2019-05-12T12:22:14.653Z,17.55
2019-05-12T12:24:43.638Z,17.63
2019-05-12T12:27:11.394Z,17.49
2019-05-12T12:29:39.122Z,17.58
2019-05-12T12:32:18.401Z,17.68
2019-05-12T12:34:44.205Z,17.75
2019-05-12T12:37:13.702Z,17.58
2019-05-12T12:39:43.487Z,17.60
2019-05-12T12:42:11.035Z,17.33
2019-05-12T12:44:38.739Z,17.79
2019-05-12T12:47:06.474Z,17.63
2019-05-12T12:49:34.296Z,17.81
2019-05-12T12:52:03.268Z,17.98
2019-05-12T12:54:33.160Z,17.90
2019-05-12T12:57:06.466Z,17.96
2019-05-12T12:59:30.070Z,17.79
2019-05-12T13:01:59.008Z,17.75
2019-05-12T13:04:33.973Z,17.96
2019-05-12T13:07:01.428Z,18.08
2019-05-12T13:09:29.143Z,18.09
2019-05-12T13:11:56.858Z,18.00
2019-05-12T13:14:28.598Z,18.00
2019-05-12T13:16:56.329Z,18.12
2019-05-12T13:19:24.407Z,18.19
2019-05-12T13:21:53.195Z,17.96
2019-05-12T13:24:21.118Z,17.88
2019-05-12T13:26:48.827Z,17.94
2019-05-12T13:29:16.643Z,18.04
2019-05-12T13:31:46.341Z,18.20
2019-05-12T13:34:14.418Z,18.20
2019-05-12T13:36:44.004Z,18.24
2019-05-12T13:39:20.354Z,18.48
2019-05-12T13:41:50.453Z,18.61
2019-05-12T13:44:17.558Z,18.18
2019-05-12T13:46:48.922Z,17.99
2019-05-12T13:49:18.973Z,18.17
2019-05-12T13:51:48.306Z,18.26
2019-05-12T13:54:20.116Z,17.94
2019-05-12T13:56:46.791Z,17.66
2019-05-12T14:00:08.458Z,17.85
2019-05-12T14:02:26.394Z,17.81
2019-05-12T14:04:55.131Z,18.03
2019-05-12T14:07:23.693Z,18.03
2019-05-12T14:09:51.684Z,18.25
2019-05-12T14:12:21.074Z,18.30
2019-05-12T14:14:48.799Z,18.42
2019-05-12T14:17:16.530Z,18.45
2019-05-12T14:19:46.225Z,18.21
2019-05-12T14:22:21.218Z,18.33
2019-05-12T14:24:46.647Z,18.10
2019-05-12T14:27:19.203Z,18.10
2019-05-12T14:29:47.232Z,17.92
2019-05-12T14:32:17.283Z,18.05
2019-05-12T14:34:44.380Z,18.07
2019-05-12T14:37:14.049Z,18.10
2019-05-12T14:39:46.258Z,17.99
2019-05-12T14:42:11.097Z,18.24
2019-05-12T14:44:44.977Z,18.36
2019-05-12T14:47:08.367Z,18.30
2019-05-12T14:49:36.155Z,18.52
2019-05-12T14:52:03.899Z,18.75
2019-05-12T14:54:31.714Z,18.83
2019-05-12T14:57:00.228Z,18.89
2019-05-12T14:59:30.254Z,18.83
2019-05-12T15:02:03.351Z,18.53
2019-05-12T15:04:30.067Z,18.78
2019-05-12T15:06:59.840Z,18.78
2019-05-12T15:09:27.506Z,18.73
2019-05-12T15:11:55.243Z,18.84
2019-05-12T15:14:26.715Z,18.85
2019-05-12T15:16:54.174Z,18.81
2019-05-12T15:19:27.850Z,18.37
2019-05-12T15:21:53.679Z,18.56
2019-05-12T15:24:21.283Z,18.44
2019-05-12T15:26:50.581Z,18.66
2019-05-12T15:29:20.059Z,18.82
2019-05-12T15:31:56.698Z,18.85
2019-05-12T15:34:23.719Z,18.77
2019-05-12T15:36:55.997Z,18.96
2019-05-12T15:39:21.240Z,18.96
2019-05-12T15:41:51.161Z,18.96
2019-05-12T15:44:23.128Z,18.99
2019-05-12T15:46:48.692Z,18.97
2019-05-12T15:49:16.521Z,18.93
2019-05-12T15:51:53.834Z,19.07
2019-05-12T15:54:14.656Z,19.05
2019-05-12T15:56:42.610Z,19.37
2019-05-12T15:59:10.416Z,19.48
2019-05-12T16:01:38.160Z,19.41
2019-05-12T16:04:05.882Z,19.55
2019-05-12T16:06:37.115Z,19.70
2019-05-12T16:09:07.328Z,19.73
2019-05-12T16:11:35.091Z,19.81
2019-05-12T16:14:03.007Z,19.96
2019-05-12T16:16:36.373Z,19.80
2019-05-12T16:19:00.408Z,19.98
2019-05-12T16:21:28.154Z,19.87
2019-05-12T16:23:56.628Z,19.80
2019-05-12T16:26:24.605Z,19.75
2019-05-12T16:28:53.989Z,19.79
2019-05-12T16:31:23.708Z,19.88
2019-05-12T16:33:52.843Z,19.87
2019-05-12T16:36:20.827Z,19.79
2019-05-12T16:38:50.168Z,19.94
2019-05-12T16:41:35.311Z,20.16
2019-05-12T16:44:07.862Z,20.11
2019-05-12T16:46:33.993Z,20.06
2019-05-12T16:49:03.310Z,20.14
2019-05-12T16:51:33.208Z,20.19
2019-05-12T16:54:00.686Z,20.24
2019-05-12T16:56:29.876Z,20.26
2019-05-12T16:58:57.747Z,20.26
2019-05-12T17:01:29.226Z,20.21
2019-05-12T17:03:55.027Z,20.11
2019-05-12T17:06:23.399Z,20.29
2019-05-12T17:08:51.559Z,20.29
2019-05-12T17:11:30.977Z,20.29
2019-05-12T17:14:03.943Z,20.28
2019-05-12T17:16:26.475Z,20.40
2019-05-12T17:18:54.332Z,20.43
2019-05-12T17:21:24.074Z,20.42
2019-05-12T17:23:53.125Z,20.44
2019-05-12T17:26:20.908Z,20.34
2019-05-12T17:28:48.732Z,20.28
2019-05-12T17:31:16.512Z,20.47
2019-05-12T17:33:44.263Z,20.45
2019-05-12T17:36:17.449Z,20.52
2019-05-12T17:38:43.830Z,20.29
2019-05-12T17:41:11.039Z,20.36
2019-05-12T17:43:45.134Z,20.36
2019-05-12T17:46:18.302Z,20.41
2019-05-12T17:48:45.391Z,20.26
2019-05-12T17:51:13.729Z,20.18
2019-05-12T17:53:43.390Z,20.36
2019-05-12T17:56:11.042Z,20.18
2019-05-12T17:58:44.388Z,20.14
2019-05-12T18:01:08.307Z,20.32
2019-05-12T18:03:39.252Z,20.20
2019-05-12T18:06:05.509Z,20.18
2019-05-12T18:08:36.436Z,19.83
2019-05-12T18:11:03.728Z,20.05
2019-05-12T18:13:34.247Z,20.06
2019-05-12T18:16:05.976Z,20.02
2019-05-12T18:18:38.072Z,20.25
2019-05-12T18:21:03.694Z,20.28
2019-05-12T18:23:31.502Z,20.19
2019-05-12T18:26:03.116Z,20.33
2019-05-12T18:28:44.252Z,20.31
2019-05-12T18:31:13.652Z,20.19
2019-05-12T18:33:49.019Z,20.13
2019-05-12T18:36:10.391Z,20.29
2019-05-12T18:38:38.207Z,19.98
2019-05-12T18:41:06.022Z,19.68
2019-05-12T18:43:37.093Z,20.03
2019-05-12T18:46:09.235Z,20.07
2019-05-12T18:48:37.203Z,20.06
2019-05-12T18:51:12.132Z,19.91
2019-05-12T18:53:35.064Z,19.75
2019-05-12T18:56:04.556Z,19.50
2019-05-12T18:58:35.270Z,19.63
2019-05-12T19:01:03.392Z,19.16
2019-05-12T19:03:44.814Z,18.83
2019-05-12T19:06:03.324Z,19.06
2019-05-12T19:08:30.526Z,19.07
2019-05-12T19:10:58.294Z,19.07
2019-05-12T19:13:30.234Z,18.53
2019-05-12T19:16:02.982Z,18.72
2019-05-12T19:18:33.273Z,18.34
2019-05-12T19:20:59.851Z,18.37
2019-05-12T19:23:35.063Z,18.31
2019-05-12T19:25:57.094Z,18.14
2019-05-12T19:28:24.882Z,17.53
2019-05-12T19:30:54.606Z,17.77
2019-05-12T19:33:22.644Z,18.04
2019-05-12T19:35:59.874Z,17.94
2019-05-12T19:38:51.261Z,18.13
2019-05-12T19:41:19.261Z,16.58
2019-05-12T19:43:49.542Z,17.68
2019-05-12T19:46:16.943Z,17.73
2019-05-12T19:48:49.801Z,17.34
2019-05-12T19:51:24.192Z,17.55
2019-05-12T19:53:44.927Z,17.57
2019-05-12T19:56:14.249Z,17.09
2019-05-12T19:58:43.837Z,16.74
2019-05-12T20:01:14.070Z,16.66
2019-05-12T20:03:43.949Z,16.72
2019-05-12T20:06:13.392Z,16.94
2019-05-12T20:08:45.837Z,17.01
2019-05-12T20:11:20.194Z,16.42
2019-05-12T20:13:49.363Z,17.09
2019-05-12T20:16:21.441Z,16.71
2019-05-12T20:18:49.266Z,15.87
2019-05-12T20:21:20.505Z,16.13
2019-05-12T20:23:47.082Z,16.40
2019-05-12T20:26:14.863Z,16.17
2019-05-12T20:28:50.094Z,15.98
2019-05-12T20:31:13.901Z,16.35
2019-05-12T20:33:43.484Z,16.75
2019-05-12T20:36:20.532Z,16.62
2019-05-12T20:38:44.747Z,16.14
2019-05-12T20:41:21.780Z,16.72
2019-05-12T20:43:44.359Z,16.39
2019-05-12T20:46:15.462Z,15.49
2019-05-12T20:48:41.206Z,16.07
2019-05-12T20:51:15.435Z,16.29
2019-05-12T20:53:38.536Z,16.29
2019-05-12T20:56:06.261Z,15.93
2019-05-12T20:58:39.534Z,16.12
2019-05-12T21:01:05.121Z,16.05
2019-05-12T21:03:33.619Z,15.79
2019-05-12T21:06:03.853Z,16.18
2019-05-12T21:08:30.848Z,16.31
2019-05-12T21:11:03.063Z,15.22
2019-05-12T21:13:31.889Z,14.71
2019-05-12T21:16:00.095Z,14.90
2019-05-12T21:18:27.830Z,15.19
2019-05-12T21:20:55.599Z,15.86
2019-05-12T21:23:24.101Z,16.24
2019-05-12T21:25:57.768Z,16.49
2019-05-12T21:28:23.658Z,16.29
2019-05-12T21:30:53.032Z,15.95
2019-05-12T21:33:23.982Z,16.19
2019-05-12T21:35:50.179Z,15.98
2019-05-12T21:38:19.001Z,15.55
2019-05-12T21:40:47.361Z,16.03
2019-05-12T21:43:15.119Z,15.30
2019-05-12T21:45:44.978Z,15.40
2019-05-12T21:48:28.659Z,15.63
2019-05-12T21:50:53.173Z,15.36
2019-05-12T21:53:57.809Z,15.88
2019-05-12T21:56:25.727Z,13.82
2019-05-12T21:58:57.904Z,15.63
2019-05-12T22:01:23.928Z,14.87
2019-05-12T22:04:02.081Z,14.68
2019-05-12T22:06:24.945Z,14.80
2019-05-12T22:09:01.304Z,15.50
2019-05-12T22:11:25.941Z,16.10
2019-05-12T22:13:59.816Z,15.78
2019-05-12T22:16:23.667Z,15.83
2019-05-12T22:18:56.139Z,15.85
2019-05-12T22:21:20.943Z,15.65
2019-05-12T22:23:51.309Z,15.33
2019-05-12T22:26:18.171Z,15.70
2019-05-12T22:28:50.681Z,15.88
2019-05-12T22:31:15.740Z,15.80
2019-05-12T22:33:56.383Z,16.18
2019-05-12T22:36:26.809Z,15.84
2019-05-12T22:39:00.618Z,15.56
2019-05-12T22:41:24.272Z,15.85
2019-05-12T22:43:53.825Z,15.83
2019-05-12T22:46:23.248Z,15.88
2019-05-12T22:48:53.433Z,15.59
2019-05-12T22:51:26.171Z,15.53
2019-05-12T22:53:50.127Z,15.73
2019-05-12T22:56:18.863Z,16.10
2019-05-12T22:58:46.598Z,15.52
2019-05-12T23:01:14.552Z,16.18
2019-05-12T23:03:51.715Z,16.04
2019-05-12T23:06:24.108Z,16.07
2019-05-12T23:08:49.358Z,16.08
2019-05-12T23:11:17.355Z,15.71
2019-05-12T23:13:45.088Z,15.88
2019-05-12T23:16:14.202Z,16.10
2019-05-12T23:18:44.304Z,15.48
2019-05-12T23:21:13.583Z,15.60
2019-05-12T23:23:40.986Z,15.95
2019-05-12T23:26:08.735Z,16.24
2019-05-12T23:28:40.433Z,15.40
2019-05-12T23:31:06.006Z,15.57
2019-05-12T23:33:36.781Z,15.50
2019-05-12T23:36:19.560Z,15.72
2019-05-12T23:38:44.959Z,15.71
2019-05-12T23:41:13.560Z,15.76
2019-05-12T23:43:41.607Z,15.62
2019-05-12T23:46:09.321Z,15.39
2019-05-12T23:48:37.062Z,15.29
2019-05-12T23:51:04.845Z,15.38
2019-05-12T23:53:33.901Z,15.76
2019-05-12T23:56:03.684Z,15.69
2019-05-12T23:58:31.551Z,15.44
